createdAt,value
2018-05-23T00:01:38.352Z,4.47
2018-05-23T00:04:05.253Z,4.23
2018-05-23T00:06:31.416Z,4.00
2018-05-23T00:08:57.578Z,4.20
2018-05-23T00:11:23.728Z,4.10
2018-05-23T00:13:49.933Z,4.20
2018-05-23T00:16:16.508Z,3.57
2018-05-23T00:18:42.672Z,4.03
2018-05-23T00:21:09.563Z,3.83
2018-05-23T00:23:35.712Z,4.20
2018-05-23T00:26:01.867Z,4.53
2018-05-23T00:28:28.761Z,4.10
2018-05-23T00:30:55.000Z,4.10
2018-05-23T00:33:21.274Z,4.40
2018-05-23T00:35:48.164Z,3.80
2018-05-23T00:38:14.312Z,3.50
2018-05-23T00:40:40.567Z,4.00
2018-05-23T00:43:06.790Z,4.83
2018-05-23T00:45:32.973Z,4.47
2018-05-23T00:47:59.127Z,4.60
2018-05-23T00:50:25.271Z,3.90
2018-05-23T00:52:51.546Z,4.53
2018-05-23T00:55:30.069Z,3.73
2018-05-23T00:57:56.219Z,3.80
2018-05-23T01:00:22.365Z,4.10
2018-05-23T01:02:48.551Z,4.50
2018-05-23T01:05:14.702Z,4.60
2018-05-23T01:07:40.865Z,4.33
2018-05-23T01:10:07.056Z,4.47
2018-05-23T01:12:33.229Z,4.43
2018-05-23T01:15:00.138Z,5.47
2018-05-23T01:17:26.404Z,4.33
2018-05-23T01:19:53.312Z,5.50
2018-05-23T01:22:19.489Z,4.00
2018-05-23T01:24:46.933Z,4.03
2018-05-23T01:27:13.809Z,4.73
2018-05-23T01:29:39.970Z,4.40
2018-05-23T01:32:06.168Z,3.80
2018-05-23T01:34:32.316Z,4.40
2018-05-23T01:36:59.065Z,4.40
2018-05-23T01:39:26.768Z,5.00
2018-05-23T01:41:53.524Z,4.67
2018-05-23T01:44:20.757Z,4.40
2018-05-23T01:46:49.937Z,4.47
2018-05-23T01:49:25.348Z,4.80
2018-05-23T01:51:51.552Z,4.80
2018-05-23T01:54:18.467Z,4.90
2018-05-23T01:56:44.776Z,4.33
2018-05-23T01:59:11.101Z,4.60
2018-05-23T02:01:37.294Z,4.73
2018-05-23T02:04:03.975Z,4.40
2018-05-23T02:06:30.163Z,4.40
2018-05-23T02:08:56.723Z,4.60
2018-05-23T02:11:22.941Z,4.73
2018-05-23T02:13:49.335Z,4.93
2018-05-23T02:16:16.926Z,4.47
2018-05-23T02:18:43.390Z,4.80
2018-05-23T02:21:09.577Z,4.30
2018-05-23T02:23:36.483Z,4.50
2018-05-23T02:26:02.648Z,4.93
2018-05-23T02:28:29.573Z,4.83
2018-05-23T02:30:55.743Z,4.93
2018-05-23T02:33:21.953Z,4.50
2018-05-23T02:35:48.924Z,5.60
2018-05-23T02:38:15.124Z,4.70
2018-05-23T02:40:42.024Z,5.93
2018-05-23T02:43:08.165Z,4.27
2018-05-23T02:45:34.324Z,4.57
2018-05-23T02:48:01.224Z,5.10
2018-05-23T02:50:27.503Z,5.30
2018-05-23T02:52:54.395Z,5.57
2018-05-23T02:55:20.577Z,5.00
2018-05-23T02:57:47.552Z,5.57
2018-05-23T03:00:13.800Z,4.77
2018-05-23T03:02:39.951Z,4.67
2018-05-23T03:05:06.132Z,4.83
2018-05-23T03:07:32.273Z,4.80
2018-05-23T03:09:58.420Z,5.00
2018-05-23T03:12:24.573Z,4.93
2018-05-23T03:14:51.148Z,5.40
2018-05-23T03:17:17.316Z,4.60
2018-05-23T03:19:43.467Z,5.23
2018-05-23T03:22:10.470Z,5.00
2018-05-23T03:24:36.578Z,4.70
2018-05-23T03:27:02.736Z,5.30
2018-05-23T03:29:29.192Z,5.30
2018-05-23T03:31:55.344Z,4.97
2018-05-23T03:34:21.485Z,5.73
2018-05-23T03:36:47.646Z,5.40
2018-05-23T03:39:13.811Z,5.47
2018-05-23T03:41:41.142Z,6.10
2018-05-23T03:44:07.307Z,6.27
2018-05-23T03:46:34.215Z,6.03
2018-05-23T03:49:00.368Z,6.93
2018-05-23T03:51:27.299Z,5.00
2018-05-23T03:53:53.468Z,5.50
2018-05-23T03:56:19.812Z,6.37
2018-05-23T03:58:45.964Z,5.47
2018-05-23T04:01:24.536Z,5.40
2018-05-23T04:04:02.964Z,5.67
2018-05-23T04:06:41.344Z,5.80
2018-05-23T04:09:08.247Z,5.10
2018-05-23T04:11:34.420Z,5.13
2018-05-23T04:14:01.327Z,5.20
2018-05-23T04:16:28.207Z,5.37
2018-05-23T04:18:55.260Z,5.53
2018-05-23T04:21:22.156Z,5.27
2018-05-23T04:23:48.326Z,5.80
2018-05-23T04:26:15.237Z,5.47
2018-05-23T04:28:41.396Z,5.20
2018-05-23T04:31:08.296Z,5.60
2018-05-23T04:33:34.475Z,5.30
2018-05-23T04:36:01.787Z,4.90
2018-05-23T04:38:27.924Z,5.13
2018-05-23T04:40:54.148Z,4.87
2018-05-23T04:43:20.308Z,4.63
2018-05-23T04:45:47.212Z,5.37
2018-05-23T04:48:13.433Z,5.33
2018-05-23T04:50:39.653Z,5.57
2018-05-23T04:53:05.809Z,4.90
2018-05-23T04:55:31.972Z,5.17
2018-05-23T04:57:58.866Z,5.73
2018-05-23T05:00:25.639Z,6.60
2018-05-23T05:02:51.889Z,5.47
2018-05-23T05:05:18.806Z,6.03
2018-05-23T05:07:45.433Z,5.40
2018-05-23T05:10:11.593Z,5.43
2018-05-23T05:12:37.740Z,6.47
2018-05-23T05:15:04.024Z,5.93
2018-05-23T05:17:30.172Z,5.97
2018-05-23T05:19:56.350Z,5.60
2018-05-23T05:22:22.895Z,5.77
2018-05-23T05:24:49.097Z,5.80
2018-05-23T05:27:15.248Z,5.70
2018-05-23T05:29:41.397Z,5.20
2018-05-23T05:32:07.557Z,5.43
2018-05-23T05:34:34.857Z,5.50
2018-05-23T05:37:01.160Z,5.70
2018-05-23T05:39:27.311Z,5.93
2018-05-23T05:41:53.461Z,6.60
2018-05-23T05:44:19.739Z,6.80
2018-05-23T05:46:45.887Z,5.63
2018-05-23T05:49:12.053Z,5.17
2018-05-23T05:51:38.231Z,5.90
2018-05-23T05:54:04.396Z,5.50
2018-05-23T05:56:30.602Z,5.40
2018-05-23T05:58:56.752Z,5.67
2018-05-23T06:01:22.934Z,5.60
2018-05-23T06:03:49.224Z,4.67
2018-05-23T06:06:15.424Z,5.47
2018-05-23T06:08:41.569Z,5.30
2018-05-23T06:11:07.759Z,5.23
2018-05-23T06:13:33.928Z,4.87
2018-05-23T06:16:00.080Z,5.80
2018-05-23T06:18:27.098Z,5.10
2018-05-23T06:20:53.244Z,5.10
2018-05-23T06:23:19.401Z,4.97
2018-05-23T06:25:45.681Z,5.43
2018-05-23T06:28:11.832Z,5.20
2018-05-23T06:30:38.377Z,5.03
2018-05-23T06:33:05.297Z,4.73
2018-05-23T06:35:32.624Z,4.90
2018-05-23T06:37:58.767Z,4.50
2018-05-23T06:40:24.921Z,4.90
2018-05-23T06:42:51.076Z,4.50
2018-05-23T06:45:17.230Z,4.37
2018-05-23T06:47:43.407Z,4.80
2018-05-23T06:50:09.680Z,4.47
2018-05-23T06:52:35.819Z,3.50
2018-05-23T06:55:02.074Z,4.30
2018-05-23T06:57:28.816Z,4.40
2018-05-23T06:59:54.979Z,3.83
2018-05-23T07:02:21.871Z,4.13
2018-05-23T07:04:48.127Z,4.13
2018-05-23T07:07:14.401Z,4.00
2018-05-23T07:09:40.592Z,4.63
2018-05-23T07:12:06.756Z,4.20
2018-05-23T07:14:32.915Z,3.97
2018-05-23T07:16:59.120Z,5.13
2018-05-23T07:19:25.342Z,3.37
2018-05-23T07:21:51.500Z,3.83
2018-05-23T07:24:17.716Z,3.90
2018-05-23T07:26:43.965Z,4.53
2018-05-23T07:29:10.469Z,4.33
2018-05-23T07:31:36.652Z,4.13
2018-05-23T07:34:02.825Z,4.20
2018-05-23T07:36:29.118Z,3.87
2018-05-23T07:38:56.064Z,3.70
2018-05-23T07:41:22.955Z,4.50
2018-05-23T07:43:49.274Z,4.37
2018-05-23T07:46:15.424Z,3.43
2018-05-23T07:48:41.588Z,3.90
2018-05-23T07:51:07.766Z,3.73
2018-05-23T07:53:33.938Z,3.77
2018-05-23T07:56:00.184Z,4.10
2018-05-23T07:58:27.065Z,3.63
2018-05-23T08:00:53.301Z,3.30
2018-05-23T08:03:19.520Z,3.57
2018-05-23T08:05:45.928Z,3.77
2018-05-23T08:08:12.820Z,3.70
2018-05-23T08:10:39.026Z,3.57
2018-05-23T08:13:05.260Z,3.30
2018-05-23T08:15:31.508Z,4.07
2018-05-23T08:17:58.032Z,4.00
2018-05-23T08:20:24.273Z,3.43
2018-05-23T08:22:50.460Z,3.77
2018-05-23T08:25:16.667Z,3.40
2018-05-23T08:27:43.572Z,3.97
2018-05-23T08:30:09.780Z,3.60
2018-05-23T08:32:36.005Z,3.37
2018-05-23T08:35:02.156Z,3.27
2018-05-23T08:37:28.386Z,3.97
2018-05-23T08:39:54.687Z,3.80
2018-05-23T08:42:20.836Z,3.67
2018-05-23T08:44:47.216Z,3.37
2018-05-23T08:47:14.176Z,3.53
2018-05-23T08:49:41.077Z,3.23
2018-05-23T08:52:07.245Z,3.27
2018-05-23T08:54:34.164Z,3.17
2018-05-23T08:57:00.386Z,2.87
2018-05-23T08:59:26.533Z,3.73
2018-05-23T09:01:53.455Z,3.20
2018-05-23T09:04:19.677Z,3.50
2018-05-23T09:06:46.296Z,3.50
2018-05-23T09:09:12.456Z,3.70
2018-05-23T09:11:38.705Z,3.40
2018-05-23T09:14:05.648Z,3.70
2018-05-23T09:16:32.604Z,3.00
2018-05-23T09:18:59.512Z,3.20
2018-05-23T09:21:26.158Z,3.50
2018-05-23T09:23:53.153Z,4.00
2018-05-23T09:26:19.333Z,3.80
2018-05-23T09:28:45.552Z,3.70
2018-05-23T09:31:11.704Z,3.53
2018-05-23T09:33:37.876Z,4.20
2018-05-23T09:36:04.473Z,3.90
2018-05-23T09:38:31.416Z,3.97
2018-05-23T09:40:57.568Z,4.00
2018-05-23T09:43:23.734Z,3.43
2018-05-23T09:45:49.936Z,4.13
2018-05-23T09:48:16.102Z,4.13
2018-05-23T09:50:42.244Z,3.40
2018-05-23T09:53:08.401Z,3.40
2018-05-23T09:55:34.556Z,3.50
2018-05-23T09:58:00.727Z,3.80
2018-05-23T10:00:26.868Z,4.03
2018-05-23T10:02:53.781Z,4.10
2018-05-23T10:05:19.928Z,3.80
2018-05-23T10:07:46.077Z,3.33
2018-05-23T10:10:13.018Z,3.70
2018-05-23T10:12:40.329Z,4.10
2018-05-23T10:15:06.485Z,3.60
2018-05-23T10:17:32.636Z,3.33
2018-05-23T10:19:59.512Z,3.97
2018-05-23T10:22:25.668Z,3.43
2018-05-23T10:24:52.005Z,3.50
2018-05-23T10:27:18.164Z,3.80
2018-05-23T10:29:45.052Z,3.90
2018-05-23T10:32:11.211Z,3.63
2018-05-23T10:34:37.373Z,3.60
2018-05-23T10:37:03.592Z,3.13
2018-05-23T10:39:30.599Z,3.70
2018-05-23T10:41:56.773Z,4.40
2018-05-23T10:44:22.949Z,3.50
2018-05-23T10:46:49.157Z,2.93
2018-05-23T10:49:15.466Z,3.80
2018-05-23T10:51:41.690Z,3.50
2018-05-23T10:54:08.792Z,3.30
2018-05-23T10:56:34.958Z,3.77
2018-05-23T10:59:01.893Z,2.93
2018-05-23T11:01:28.787Z,3.17
2018-05-23T11:03:55.033Z,3.03
2018-05-23T11:06:21.206Z,3.73
2018-05-23T11:08:47.392Z,3.47
2018-05-23T11:11:13.650Z,3.23
2018-05-23T11:13:40.548Z,3.00
2018-05-23T11:16:07.070Z,2.80
2018-05-23T11:18:33.214Z,3.60
2018-05-23T11:20:59.363Z,3.20
2018-05-23T11:23:25.520Z,3.10
2018-05-23T11:25:52.432Z,4.90
2018-05-23T11:28:18.595Z,4.07
2018-05-23T11:30:45.504Z,2.70
2018-05-23T11:33:11.760Z,3.10
2018-05-23T11:35:38.652Z,2.50
2018-05-23T11:38:04.868Z,3.20
2018-05-23T11:40:31.029Z,3.43
2018-05-23T11:42:57.308Z,3.50
2018-05-23T11:45:23.451Z,3.23
2018-05-23T11:47:49.640Z,3.47
2018-05-23T11:50:16.548Z,2.93
2018-05-23T11:52:42.740Z,3.50
2018-05-23T11:55:08.916Z,3.13
2018-05-23T11:57:35.073Z,3.50
2018-05-23T12:00:02.091Z,3.70
2018-05-23T12:02:28.244Z,3.57
2018-05-23T12:04:55.136Z,3.40
2018-05-23T12:07:21.324Z,3.20
2018-05-23T12:09:48.436Z,3.67
2018-05-23T12:12:14.617Z,3.40
2018-05-23T12:14:40.785Z,3.90
2018-05-23T12:17:06.959Z,4.40
2018-05-23T12:19:33.963Z,3.43
2018-05-23T12:22:00.368Z,3.50
2018-05-23T12:24:26.924Z,3.20
2018-05-23T12:26:53.525Z,3.33
2018-05-23T12:29:19.668Z,3.17
2018-05-23T12:31:45.853Z,3.30
2018-05-23T12:34:12.816Z,3.33
2018-05-23T12:36:39.724Z,3.70
2018-05-23T12:39:05.934Z,3.80
2018-05-23T12:41:32.089Z,3.70
2018-05-23T12:43:58.228Z,3.40
2018-05-23T12:46:24.478Z,3.53
2018-05-23T12:48:50.804Z,3.53
2018-05-23T12:51:17.887Z,3.37
2018-05-23T12:53:44.164Z,3.30
2018-05-23T12:56:10.334Z,3.53
2018-05-23T12:58:36.495Z,3.47
2018-05-23T13:01:02.669Z,3.27
2018-05-23T13:03:29.650Z,3.27
2018-05-23T13:05:56.540Z,3.40
2018-05-23T13:08:22.716Z,3.30
2018-05-23T13:10:48.946Z,3.30
2018-05-23T13:13:15.244Z,3.50
2018-05-23T13:15:42.242Z,3.13
2018-05-23T13:18:08.424Z,2.90
2018-05-23T13:20:34.581Z,3.23
2018-05-23T13:23:00.740Z,2.97
2018-05-23T13:25:26.928Z,3.00
2018-05-23T13:27:53.116Z,3.27
2018-05-23T13:30:20.063Z,3.00
2018-05-23T13:32:47.008Z,2.83
2018-05-23T13:35:13.896Z,3.10
2018-05-23T13:37:40.062Z,3.00
2018-05-23T13:40:06.252Z,3.20
2018-05-23T13:42:32.430Z,3.70
2018-05-23T13:44:59.432Z,2.63
2018-05-23T13:47:25.579Z,2.93
2018-05-23T13:49:51.879Z,2.90
2018-05-23T13:52:18.056Z,2.57
2018-05-23T13:54:44.216Z,2.77
2018-05-23T13:57:10.500Z,3.37
2018-05-23T13:59:36.642Z,3.07
2018-05-23T14:02:02.797Z,3.33
2018-05-23T14:04:29.749Z,3.10
2018-05-23T14:06:55.899Z,2.70
2018-05-23T14:09:22.055Z,2.80
2018-05-23T14:11:48.208Z,2.00
2018-05-23T14:14:15.883Z,2.50
2018-05-23T14:16:42.792Z,2.10
2018-05-23T14:19:08.987Z,2.30
2018-05-23T14:21:35.258Z,2.33
2018-05-23T14:24:01.437Z,2.00
2018-05-23T14:26:27.628Z,1.80
2018-05-23T14:28:53.772Z,1.73
2018-05-23T14:31:20.703Z,2.30
2018-05-23T14:33:46.860Z,1.90
2018-05-23T14:36:13.092Z,1.80
2018-05-23T14:38:39.282Z,2.13
2018-05-23T14:41:05.456Z,2.43
2018-05-23T14:43:31.842Z,2.53
2018-05-23T14:45:57.944Z,1.90
2018-05-23T14:48:24.276Z,2.23
2018-05-23T14:50:50.437Z,1.87
2018-05-23T14:53:17.321Z,2.60
2018-05-23T14:55:43.621Z,2.63
2018-05-23T14:58:10.516Z,2.00
2018-05-23T15:00:36.711Z,2.27
2018-05-23T15:03:02.873Z,2.20
2018-05-23T15:05:29.063Z,2.27
2018-05-23T15:07:55.640Z,2.97
2018-05-23T15:10:21.792Z,1.87
2018-05-23T15:12:47.984Z,2.40
2018-05-23T15:15:14.177Z,3.40
2018-05-23T15:17:41.319Z,1.70
2018-05-23T15:20:08.348Z,2.17
2018-05-23T15:22:35.252Z,2.23
2018-05-23T15:25:01.399Z,2.43
2018-05-23T15:27:27.561Z,3.30
2018-05-23T15:29:54.449Z,2.00
2018-05-23T15:32:20.648Z,1.63
2018-05-23T15:34:47.541Z,1.87
2018-05-23T15:37:14.244Z,1.83
2018-05-23T15:39:40.413Z,1.90
2018-05-23T15:42:06.701Z,2.53
2018-05-23T15:44:32.995Z,1.80
2018-05-23T15:46:59.200Z,1.40
2018-05-23T15:49:25.836Z,2.13
2018-05-23T15:51:51.978Z,1.93
2018-05-23T15:54:18.189Z,2.00
2018-05-23T15:56:44.432Z,2.00
2018-05-23T15:59:11.056Z,2.03
2018-05-23T16:01:37.236Z,2.67
2018-05-23T16:04:04.221Z,2.00
2018-05-23T16:06:30.398Z,2.77
2018-05-23T16:08:57.396Z,2.00
2018-05-23T16:11:23.559Z,1.70
2018-05-23T16:13:49.751Z,2.07
2018-05-23T16:16:16.072Z,1.87
2018-05-23T16:18:42.289Z,1.93
2018-05-23T16:21:08.812Z,1.83
2018-05-23T16:23:35.001Z,1.60
2018-05-23T16:26:01.936Z,1.97
2018-05-23T16:28:28.229Z,2.10
2018-05-23T16:30:54.369Z,2.23
2018-05-23T16:33:20.910Z,2.30
2018-05-23T16:35:47.120Z,1.90
2018-05-23T16:38:13.376Z,2.43
2018-05-23T16:40:39.740Z,2.30
2018-05-23T16:43:05.899Z,1.60
2018-05-23T16:45:37.199Z,1.60
2018-05-23T16:48:03.599Z,1.83
2018-05-23T16:50:29.767Z,1.80
2018-05-23T16:52:55.933Z,1.97
2018-05-23T16:55:22.875Z,2.00
2018-05-23T16:57:50.244Z,1.97
2018-05-23T17:00:16.440Z,2.00
2018-05-23T17:02:42.568Z,2.00
2018-05-23T17:05:08.816Z,2.20
2018-05-23T17:07:35.688Z,3.00
2018-05-23T17:10:01.832Z,4.30
2018-05-23T17:12:27.991Z,3.73
2018-05-23T17:15:09.169Z,3.10
2018-05-23T17:17:35.335Z,4.57
2018-05-23T17:20:01.484Z,4.30
2018-05-23T17:22:27.640Z,2.47
2018-05-23T17:24:53.808Z,2.60
2018-05-23T17:27:20.686Z,1.97
2018-05-23T17:29:46.833Z,2.10
2018-05-23T17:32:12.957Z,3.07
2018-05-23T17:34:39.107Z,3.00
2018-05-23T17:37:05.277Z,2.47
2018-05-23T17:39:31.465Z,2.33
2018-05-23T17:41:57.600Z,2.63
2018-05-23T17:44:24.468Z,2.67
2018-05-23T17:46:50.651Z,3.07
2018-05-23T17:49:16.803Z,3.50
2018-05-23T17:51:43.738Z,3.80
2018-05-23T17:54:10.044Z,2.80
2018-05-23T17:56:36.184Z,2.77
2018-05-23T17:59:02.340Z,3.17
2018-05-23T18:01:29.233Z,3.40
2018-05-23T18:03:56.514Z,3.07
2018-05-23T18:06:22.751Z,3.00
2018-05-23T18:08:48.938Z,2.83
2018-05-23T18:11:15.166Z,3.17
2018-05-23T18:13:41.379Z,2.93
2018-05-23T18:16:07.668Z,3.10
2018-05-23T18:18:33.928Z,3.43
2018-05-23T18:21:00.203Z,3.17
2018-05-23T18:23:26.417Z,2.70
2018-05-23T18:25:52.611Z,3.00
2018-05-23T18:28:18.862Z,2.90
2018-05-23T18:30:45.007Z,3.43
2018-05-23T18:33:11.525Z,3.77
2018-05-23T18:35:37.724Z,4.37
2018-05-23T18:38:04.640Z,3.80
2018-05-23T18:40:31.266Z,4.23
2018-05-23T18:42:57.590Z,3.73
2018-05-23T18:45:23.808Z,3.90
2018-05-23T18:47:50.060Z,3.30
2018-05-23T18:50:16.261Z,3.33
2018-05-23T18:52:42.801Z,2.90
2018-05-23T18:55:09.148Z,3.17
2018-05-23T18:57:35.331Z,2.97
2018-05-23T19:00:01.514Z,3.03
2018-05-23T19:02:27.686Z,2.77
2018-05-23T19:04:53.896Z,4.17
2018-05-23T19:07:20.037Z,3.13
2018-05-23T19:09:46.198Z,3.20
2018-05-23T19:12:12.410Z,3.10
2018-05-23T19:14:38.975Z,3.43
2018-05-23T19:17:05.353Z,2.70
2018-05-23T19:19:31.621Z,2.80
2018-05-23T19:21:57.864Z,2.70
2018-05-23T19:24:24.304Z,3.13
2018-05-23T19:26:50.456Z,3.10
2018-05-23T19:29:17.664Z,2.90
2018-05-23T19:31:43.936Z,3.53
2018-05-23T19:34:10.114Z,3.67
2018-05-23T19:36:36.261Z,3.30
2018-05-23T19:39:02.504Z,3.50
2018-05-23T19:41:28.695Z,3.67
2018-05-23T19:43:54.848Z,3.80
2018-05-23T19:46:20.992Z,3.70
2018-05-23T19:48:47.322Z,3.40
2018-05-23T19:51:13.603Z,3.13
2018-05-23T19:53:39.897Z,2.70
2018-05-23T19:56:06.089Z,2.80
2018-05-23T19:58:32.241Z,3.27
2018-05-23T20:00:59.115Z,4.00
2018-05-23T20:03:25.999Z,3.40
2018-05-23T20:05:52.152Z,2.63
2018-05-23T20:08:18.772Z,3.10
2018-05-23T20:10:44.896Z,3.30
2018-05-23T20:13:11.036Z,3.63
2018-05-23T20:15:37.313Z,3.50
2018-05-23T20:18:04.204Z,3.57
2018-05-23T20:20:30.341Z,3.67
2018-05-23T20:22:56.490Z,3.30
2018-05-23T20:25:22.648Z,2.97
2018-05-23T20:27:48.793Z,2.83
2018-05-23T20:30:14.982Z,3.27
2018-05-23T20:32:41.904Z,3.03
2018-05-23T20:35:08.062Z,2.63
2018-05-23T20:37:34.956Z,3.50
2018-05-23T20:40:01.131Z,3.07
2018-05-23T20:42:28.055Z,2.70
2018-05-23T20:44:54.187Z,2.90
2018-05-23T20:47:20.792Z,2.87
2018-05-23T20:49:46.968Z,2.83
2018-05-23T20:52:13.877Z,3.57
2018-05-23T20:54:40.099Z,3.00
2018-05-23T20:57:06.349Z,2.73
2018-05-23T20:59:32.534Z,3.53
2018-05-23T21:01:58.693Z,2.90
2018-05-23T21:04:24.832Z,2.97
2018-05-23T21:06:51.106Z,3.50
2018-05-23T21:09:17.260Z,2.93
2018-05-23T21:11:43.432Z,3.03
2018-05-23T21:14:09.590Z,2.30
2018-05-23T21:16:35.835Z,2.70
2018-05-23T21:19:02.039Z,2.90
2018-05-23T21:21:28.308Z,2.90
2018-05-23T21:23:54.451Z,2.60
2018-05-23T21:26:20.619Z,3.63
2018-05-23T21:28:47.532Z,2.73
2018-05-23T21:31:13.682Z,3.40
2018-05-23T21:33:40.583Z,3.20
2018-05-23T21:36:06.887Z,3.30
2018-05-23T21:38:33.039Z,3.17
2018-05-23T21:40:59.184Z,2.67
2018-05-23T21:43:25.344Z,3.30
2018-05-23T21:45:52.247Z,2.93
2018-05-23T21:48:18.475Z,3.23
2018-05-23T21:50:45.850Z,2.90
2018-05-23T21:53:12.067Z,3.30
2018-05-23T21:55:38.301Z,3.23
2018-05-23T21:58:04.467Z,3.10
2018-05-23T22:00:30.708Z,2.77
2018-05-23T22:02:56.891Z,2.93
2018-05-23T22:05:23.052Z,2.90
2018-05-23T22:07:49.347Z,3.50
2018-05-23T22:10:15.488Z,3.13
2018-05-23T22:12:42.384Z,3.10
2018-05-23T22:15:08.613Z,3.30
2018-05-23T22:17:34.744Z,3.53
2018-05-23T22:20:01.016Z,2.70
2018-05-23T22:22:27.906Z,3.27
2018-05-23T22:24:54.103Z,3.40
2018-05-23T22:27:21.109Z,3.60
2018-05-23T22:29:47.287Z,3.50
2018-05-23T22:32:13.436Z,2.87
2018-05-23T22:34:39.588Z,3.37
2018-05-23T22:37:06.520Z,2.63
2018-05-23T22:39:32.706Z,3.73
2018-05-23T22:41:59.598Z,2.90
2018-05-23T22:44:26.228Z,3.00
2018-05-23T22:46:52.400Z,2.97
2018-05-23T22:49:18.550Z,3.50
2018-05-23T22:51:44.716Z,4.30
2018-05-23T22:54:11.137Z,3.07
2018-05-23T22:56:37.280Z,2.90
2018-05-23T22:59:03.656Z,3.13
2018-05-23T23:01:30.607Z,3.00
2018-05-23T23:03:57.635Z,3.40
2018-05-23T23:06:25.090Z,3.27
2018-05-23T23:08:51.249Z,3.67
2018-05-23T23:11:17.405Z,3.10
2018-05-23T23:13:43.622Z,3.03
2018-05-23T23:16:09.715Z,3.23
2018-05-23T23:18:36.612Z,3.20
2018-05-23T23:21:02.796Z,3.17
2018-05-23T23:23:29.700Z,3.00
2018-05-23T23:25:55.880Z,3.63
2018-05-23T23:28:22.022Z,3.30
2018-05-23T23:30:48.211Z,3.70
2018-05-23T23:33:15.103Z,2.90
2018-05-23T23:35:41.362Z,3.40
2018-05-23T23:38:07.504Z,2.90
2018-05-23T23:40:33.640Z,3.63
2018-05-23T23:43:00.544Z,3.27
2018-05-23T23:45:26.800Z,3.53
2018-05-23T23:47:53.025Z,3.57
2018-05-23T23:50:19.177Z,3.50
2018-05-23T23:52:46.069Z,3.67
2018-05-23T23:55:12.224Z,3.00
2018-05-23T23:57:38.398Z,3.63
